Dunbar, United Kingdom
Current Conditions -  °F | °C
As of 5:50 PM on Saturday 25 Oct 2014 (Local Time) from EGQL Reporting Station
Broken Clouds Broken Clouds  
Wind Chill: 11°   Ceiling: 4900
Heat Index: 11°   Visibility: 6mi
Dew Point:   Wind: 18mph
Humidity: 76%   Direction: 240°WSW
Pressure: 29.62"   Gusts: 30mph
Location:  56°N, 2.51°W
Report Text: EGQL 251650Z AUTO 24016G26KT 9999 FEW032/// BKN049/// 11/07 Q1003 RERA
Loading
Personal Weather Stations






























Interactive Weather Map
Tropical Storm Tracking
New forecast layout! Learn more

10-Day Weather Forecast

Advertisements
Track Severe Weather on mobile